createdAt,value
2023-04-13T00:01:35.797Z,2.50
2023-04-13T00:04:05.356Z,2.85
2023-04-13T00:06:33.162Z,3.20
2023-04-13T00:09:04.367Z,2.35
2023-04-13T00:11:32.626Z,2.70
2023-04-13T00:14:00.357Z,3.67
2023-04-13T00:16:30.392Z,3.88
2023-04-13T00:18:58.190Z,3.03
2023-04-13T00:21:26.489Z,4.10
2023-04-13T00:23:54.209Z,2.72
2023-04-13T00:26:23.888Z,2.33
2023-04-13T00:28:51.565Z,2.75
2023-04-13T00:31:19.157Z,3.28
2023-04-13T00:33:46.717Z,2.30
2023-04-13T00:36:14.216Z,2.75
2023-04-13T00:38:45.609Z,3.53
2023-04-13T00:41:16.042Z,3.15
2023-04-13T00:43:45.576Z,3.00
2023-04-13T00:46:13.472Z,3.28
2023-04-13T00:48:42.588Z,3.00
2023-04-13T00:51:10.393Z,3.45
2023-04-13T00:53:38.141Z,2.75
2023-04-13T00:56:06.668Z,2.45
2023-04-13T00:58:36.883Z,2.60
2023-04-13T01:01:04.921Z,2.20
2023-04-13T01:03:32.476Z,2.30
2023-04-13T01:06:02.659Z,2.90
2023-04-13T01:08:37.677Z,2.95
2023-04-13T01:11:19.402Z,2.33
2023-04-13T01:13:57.265Z,2.40
2023-04-13T01:16:29.056Z,2.35
2023-04-13T01:18:56.882Z,2.43
2023-04-13T01:21:26.645Z,2.50
2023-04-13T01:23:54.097Z,3.10
2023-04-13T01:26:23.804Z,4.60
2023-04-13T01:28:52.358Z,2.50
2023-04-13T01:31:20.404Z,3.50
2023-04-13T01:33:51.534Z,2.67
2023-04-13T01:36:19.621Z,2.72
2023-04-13T01:38:47.330Z,3.42
2023-04-13T01:41:15.164Z,2.92
2023-04-13T01:43:42.724Z,2.33
2023-04-13T01:46:12.003Z,2.60
2023-04-13T01:48:51.820Z,2.28
2023-04-13T01:51:20.376Z,2.40
2023-04-13T01:53:49.773Z,2.33
2023-04-13T01:56:19.928Z,3.63
2023-04-13T01:58:50.398Z,1.83
2023-04-13T02:01:18.694Z,1.90
2023-04-13T02:03:46.806Z,2.42
2023-04-13T02:06:14.691Z,2.72
2023-04-13T02:08:43.318Z,2.83
2023-04-13T02:11:10.883Z,2.65
2023-04-13T02:13:38.427Z,2.80
2023-04-13T02:16:07.732Z,3.72
2023-04-13T02:18:36.304Z,3.90
2023-04-13T02:21:09.639Z,3.20
2023-04-13T02:23:37.700Z,2.63
2023-04-13T02:26:07.625Z,2.38
2023-04-13T02:28:35.427Z,2.25
2023-04-13T02:31:04.370Z,2.83
2023-04-13T02:33:32.496Z,2.28
2023-04-13T02:36:00.710Z,2.50
2023-04-13T02:38:28.801Z,2.70
2023-04-13T02:40:56.973Z,2.63
2023-04-13T02:43:24.438Z,2.40
2023-04-13T02:45:52.465Z,2.15
2023-04-13T02:48:20.354Z,2.45
2023-04-13T02:50:48.076Z,2.10
2023-04-13T02:53:16.231Z,2.20
2023-04-13T02:55:46.605Z,2.05
2023-04-13T02:58:17.187Z,2.35
2023-04-13T03:00:46.494Z,2.00
2023-04-13T03:03:14.282Z,3.47
2023-04-13T03:05:42.482Z,2.70
2023-04-13T03:08:10.883Z,2.85
2023-04-13T03:10:38.407Z,2.42
2023-04-13T03:13:06.224Z,2.25
2023-04-13T03:15:34.032Z,3.45
2023-04-13T03:18:01.628Z,2.03
2023-04-13T03:20:30.067Z,2.20
2023-04-13T03:22:59.290Z,2.65
2023-04-13T03:25:26.759Z,2.60
2023-04-13T03:27:54.205Z,3.42
2023-04-13T03:30:22.350Z,1.73
2023-04-13T03:32:49.888Z,2.78
2023-04-13T03:35:18.163Z,2.70
2023-04-13T03:37:45.672Z,2.22
2023-04-13T03:40:13.579Z,1.70
2023-04-13T03:42:41.074Z,2.40
2023-04-13T03:45:08.832Z,2.33
2023-04-13T03:47:36.539Z,2.53
2023-04-13T03:50:04.393Z,2.08
2023-04-13T03:52:33.040Z,1.98
2023-04-13T03:55:00.877Z,2.03
2023-04-13T03:57:28.513Z,2.97
2023-04-13T03:59:56.012Z,2.30
2023-04-13T04:02:23.545Z,2.78
2023-04-13T04:04:51.627Z,2.90
2023-04-13T04:07:23.805Z,2.38
2023-04-13T04:09:51.417Z,3.10
2023-04-13T04:12:19.655Z,2.15
2023-04-13T04:14:47.191Z,1.80
2023-04-13T04:17:15.139Z,3.40
2023-04-13T04:19:42.739Z,1.95
2023-04-13T04:22:10.650Z,3.30
2023-04-13T04:24:38.320Z,2.60
2023-04-13T04:27:06.346Z,3.38
2023-04-13T04:29:36.608Z,2.22
2023-04-13T04:32:11.344Z,2.15
2023-04-13T04:34:39.427Z,2.17
2023-04-13T04:37:19.537Z,2.30
2023-04-13T04:39:48.191Z,2.15
2023-04-13T04:42:15.632Z,2.60
2023-04-13T04:44:45.640Z,2.10
2023-04-13T04:47:17.613Z,3.63
2023-04-13T04:49:45.039Z,2.05
2023-04-13T04:52:13.113Z,2.55
2023-04-13T04:54:40.620Z,2.15
2023-04-13T04:57:11.222Z,2.00
2023-04-13T04:59:39.426Z,3.08
2023-04-13T05:02:09.877Z,2.40
2023-04-13T05:04:37.749Z,2.20
2023-04-13T05:07:06.533Z,4.22
2023-04-13T05:09:34.809Z,2.28
2023-04-13T05:12:08.153Z,2.00
2023-04-13T05:14:35.873Z,2.03
2023-04-13T05:17:03.467Z,2.28
2023-04-13T05:19:30.989Z,2.55
2023-04-13T05:21:59.263Z,1.92
2023-04-13T05:24:26.677Z,2.40
2023-04-13T05:26:55.681Z,2.15
2023-04-13T05:29:23.337Z,1.83
2023-04-13T05:31:51.029Z,2.55
2023-04-13T05:34:21.955Z,2.35
2023-04-13T05:36:54.474Z,1.98
2023-04-13T05:39:22.598Z,2.08
2023-04-13T05:41:50.165Z,1.92
2023-04-13T05:44:17.783Z,2.13
2023-04-13T05:46:48.451Z,2.08
2023-04-13T05:49:16.184Z,1.95
2023-04-13T05:51:43.843Z,2.10
2023-04-13T05:54:12.150Z,1.95
2023-04-13T05:56:39.901Z,2.95
2023-04-13T05:59:10.776Z,2.20
2023-04-13T06:01:38.468Z,3.78
2023-04-13T06:04:10.389Z,2.53
2023-04-13T06:06:38.590Z,2.55
2023-04-13T06:09:06.627Z,2.08
2023-04-13T06:11:36.883Z,2.10
2023-04-13T06:14:08.419Z,2.13
2023-04-13T06:16:36.022Z,2.38
2023-04-13T06:19:03.499Z,2.03
2023-04-13T06:21:31.300Z,2.92
2023-04-13T06:24:01.803Z,2.97
2023-04-13T06:26:29.581Z,2.40
2023-04-13T06:28:57.529Z,2.42
2023-04-13T06:31:28.202Z,2.30
2023-04-13T06:33:56.383Z,1.92
2023-04-13T06:36:23.904Z,2.13
2023-04-13T06:38:54.492Z,2.65
2023-04-13T06:41:22.214Z,2.35
2023-04-13T06:43:49.991Z,2.50
2023-04-13T06:46:19.697Z,2.30
2023-04-13T06:48:47.780Z,2.20
2023-04-13T06:51:15.554Z,2.13
2023-04-13T06:53:43.267Z,1.98
2023-04-13T06:56:13.510Z,2.15
2023-04-13T06:58:41.462Z,2.25
2023-04-13T07:01:09.128Z,2.20
2023-04-13T07:03:36.818Z,2.40
2023-04-13T07:06:05.255Z,2.00
2023-04-13T07:08:34.666Z,2.15
2023-04-13T07:11:05.566Z,2.60
2023-04-13T07:13:33.233Z,1.75
2023-04-13T07:16:00.919Z,3.25
2023-04-13T07:18:28.497Z,2.97
2023-04-13T07:20:56.523Z,1.98
2023-04-13T07:23:24.053Z,2.53
2023-04-13T07:25:54.192Z,2.10
2023-04-13T07:28:21.656Z,2.97
2023-04-13T07:30:49.157Z,2.45
2023-04-13T07:33:16.871Z,1.60
2023-04-13T07:35:44.846Z,3.00
2023-04-13T07:38:12.378Z,2.08
2023-04-13T07:40:39.841Z,2.25
2023-04-13T07:43:07.610Z,3.13
2023-04-13T07:45:35.312Z,1.90
2023-04-13T07:48:05.967Z,2.58
2023-04-13T07:50:33.500Z,3.13
2023-04-13T07:53:01.142Z,2.25
2023-04-13T07:55:28.646Z,3.28
2023-04-13T07:57:56.323Z,2.75
2023-04-13T08:00:24.067Z,2.20
2023-04-13T08:02:52.128Z,3.03
2023-04-13T08:05:19.888Z,3.05
2023-04-13T08:07:49.617Z,2.67
2023-04-13T08:10:17.358Z,2.80
2023-04-13T08:12:44.941Z,2.53
2023-04-13T08:15:12.865Z,3.53
2023-04-13T08:17:40.405Z,3.05
2023-04-13T08:20:08.844Z,2.47
2023-04-13T08:22:37.488Z,2.45
2023-04-13T08:25:07.325Z,2.83
2023-04-13T08:27:35.034Z,3.58
2023-04-13T08:30:02.897Z,3.45
2023-04-13T08:32:30.396Z,2.50
2023-04-13T08:34:57.964Z,3.42
2023-04-13T08:37:26.125Z,2.30
2023-04-13T08:40:00.355Z,2.80
2023-04-13T08:42:29.091Z,2.78
2023-04-13T08:45:00.552Z,3.90
2023-04-13T08:47:28.825Z,3.05
2023-04-13T08:50:02.087Z,2.58
2023-04-13T08:52:29.804Z,2.80
2023-04-13T08:55:06.958Z,4.88
2023-04-13T08:57:35.127Z,2.22
2023-04-13T09:00:09.142Z,2.30
2023-04-13T09:02:39.374Z,2.55
2023-04-13T09:05:16.821Z,3.20
2023-04-13T09:07:48.152Z,3.22
2023-04-13T09:10:19.090Z,2.53
2023-04-13T09:12:47.565Z,3.75
2023-04-13T09:15:18.531Z,3.83
2023-04-13T09:17:46.930Z,3.00
2023-04-13T09:20:21.406Z,3.83
2023-04-13T09:22:49.399Z,3.22
2023-04-13T09:25:28.051Z,3.00
2023-04-13T09:27:56.722Z,3.20
2023-04-13T09:30:25.656Z,3.22
2023-04-13T09:33:06.121Z,3.60
2023-04-13T09:35:34.846Z,2.78
2023-04-13T09:38:02.579Z,3.33
2023-04-13T09:40:30.066Z,2.97
2023-04-13T09:43:01.677Z,3.78
2023-04-13T09:45:36.325Z,3.58
2023-04-13T09:48:16.672Z,3.67
2023-04-13T09:50:44.860Z,3.63
2023-04-13T09:53:12.610Z,3.22
2023-04-13T09:55:40.640Z,3.38
2023-04-13T09:58:15.543Z,3.55
2023-04-13T10:00:49.578Z,4.72
2023-04-13T10:03:19.645Z,4.07
2023-04-13T10:08:27.310Z,4.13
2023-04-13T10:10:59.965Z,4.38
2023-04-13T10:13:29.425Z,2.75
2023-04-13T10:16:10.609Z,3.13
2023-04-13T10:18:41.841Z,3.78
2023-04-13T10:21:13.115Z,3.50
2023-04-13T10:23:40.930Z,3.25
2023-04-13T10:26:08.433Z,3.75
2023-04-13T10:29:02.487Z,3.85
2023-04-13T10:31:37.890Z,3.90
2023-04-13T10:34:07.066Z,4.05
2023-04-13T10:36:56.585Z,3.58
2023-04-13T10:39:30.737Z,3.85
2023-04-13T10:42:05.192Z,4.40
2023-04-13T10:44:45.114Z,3.90
2023-04-13T10:47:14.127Z,3.75
2023-04-13T10:49:41.978Z,4.10
2023-04-13T10:52:13.012Z,4.00
2023-04-13T10:54:41.897Z,3.83
2023-04-13T10:57:10.413Z,3.78
2023-04-13T10:59:49.127Z,3.80
2023-04-13T11:02:25.396Z,3.40
2023-04-13T11:04:53.551Z,3.22
2023-04-13T11:07:26.582Z,3.50
2023-04-13T11:12:21.675Z,3.70
2023-04-13T11:14:49.782Z,4.13
2023-04-13T11:17:18.979Z,3.45
2023-04-13T11:19:56.831Z,3.72
2023-04-13T11:22:25.195Z,4.22
2023-04-13T11:24:52.673Z,4.07
2023-04-13T11:27:23.942Z,3.53
2023-04-13T11:30:08.058Z,3.45
2023-04-13T11:32:36.129Z,3.40
2023-04-13T11:35:10.245Z,4.57
2023-04-13T11:37:42.060Z,4.07
2023-04-13T11:40:17.679Z,3.88
2023-04-13T11:42:47.100Z,3.70
2023-04-13T11:45:15.505Z,2.95
2023-04-13T11:47:43.577Z,4.03
2023-04-13T11:50:11.620Z,3.47
2023-04-13T11:52:40.525Z,3.95
2023-04-13T11:55:21.613Z,4.22
2023-04-13T11:57:54.155Z,4.80
2023-04-13T12:00:27.043Z,4.10
2023-04-13T12:05:31.750Z,3.50
2023-04-13T12:10:40.304Z,3.35
2023-04-13T12:16:05.162Z,4.28
2023-04-13T12:18:37.450Z,5.10
2023-04-13T12:21:08.363Z,3.75
2023-04-13T12:23:36.739Z,3.92
2023-04-13T12:26:41.232Z,4.07
2023-04-13T12:28:59.980Z,2.80
2023-04-13T12:31:33.633Z,3.65
2023-04-13T12:34:01.331Z,3.78
2023-04-13T12:36:32.226Z,3.83
2023-04-13T12:39:00.219Z,4.20
2023-04-13T12:41:28.052Z,3.10
2023-04-13T12:43:55.702Z,3.90
2023-04-13T12:46:23.305Z,3.45
2023-04-13T12:48:53.786Z,4.00
2023-04-13T12:51:21.387Z,4.15
2023-04-13T12:53:49.091Z,3.35
2023-04-13T12:56:16.977Z,4.05
2023-04-13T12:58:45.061Z,3.75
2023-04-13T13:01:18.316Z,3.47
2023-04-13T13:03:46.935Z,3.92
2023-04-13T13:06:14.461Z,5.32
2023-04-13T13:08:42.019Z,3.92
2023-04-13T13:11:09.756Z,4.13
2023-04-13T13:13:37.266Z,4.03
2023-04-13T13:16:06.941Z,3.38
2023-04-13T13:18:49.256Z,6.47
2023-04-13T13:21:18.723Z,5.28
2023-04-13T13:23:46.382Z,2.60
2023-04-13T13:26:23.953Z,3.92
2023-04-13T13:28:52.726Z,4.68
2023-04-13T13:31:20.327Z,3.90
2023-04-13T13:33:47.876Z,4.03
2023-04-13T13:36:16.241Z,4.03
2023-04-13T13:38:43.899Z,4.20
2023-04-13T13:41:11.547Z,4.05
2023-04-13T13:43:39.551Z,3.33
2023-04-13T13:46:07.372Z,5.68
2023-04-13T13:48:34.932Z,3.92
2023-04-13T13:51:03.681Z,4.25
2023-04-13T13:53:32.468Z,4.85
2023-04-13T13:55:59.910Z,3.83
2023-04-13T13:58:30.597Z,4.10
2023-04-13T14:00:58.169Z,5.65
2023-04-13T14:03:25.861Z,4.38
2023-04-13T14:05:53.508Z,4.65
2023-04-13T14:08:21.182Z,5.40
2023-04-13T14:10:49.115Z,4.60
2023-04-13T14:13:17.032Z,3.90
2023-04-13T14:15:44.631Z,6.68
2023-04-13T14:18:12.588Z,4.88
2023-04-13T14:20:40.610Z,4.95
2023-04-13T14:23:09.843Z,4.03
2023-04-13T14:25:38.390Z,5.20
2023-04-13T14:28:05.962Z,4.60
2023-04-13T14:30:33.998Z,4.15
2023-04-13T14:33:02.212Z,5.22
2023-04-13T14:35:30.021Z,6.80
2023-04-13T14:37:57.531Z,5.28
2023-04-13T14:40:25.090Z,3.78
2023-04-13T14:42:55.683Z,4.05
2023-04-13T14:45:23.187Z,4.47
2023-04-13T14:47:50.775Z,4.03
2023-04-13T14:50:18.466Z,4.85
2023-04-13T14:52:46.809Z,3.40
2023-04-13T14:55:14.828Z,3.88
2023-04-13T14:57:42.426Z,4.55
2023-04-13T15:00:30.585Z,4.05
2023-04-13T15:02:58.323Z,4.50
2023-04-13T15:05:26.557Z,4.70
2023-04-13T15:07:54.059Z,4.57
2023-04-13T15:10:22.215Z,4.10
2023-04-13T15:12:49.771Z,5.25
2023-04-13T15:15:17.377Z,4.38
2023-04-13T15:17:45.034Z,5.40
2023-04-13T15:20:12.697Z,3.50
2023-04-13T15:22:40.311Z,3.60
2023-04-13T15:25:08.252Z,3.80
2023-04-13T15:27:38.371Z,3.88
2023-04-13T15:30:06.117Z,3.03
2023-04-13T15:32:37.030Z,4.15
2023-04-13T15:35:04.729Z,3.78
2023-04-13T15:37:32.367Z,4.10
2023-04-13T15:39:59.921Z,4.95
2023-04-13T15:42:27.835Z,5.47
2023-04-13T15:44:55.778Z,4.05
2023-04-13T15:47:23.418Z,3.88
2023-04-13T15:49:51.159Z,5.80
2023-04-13T15:52:18.608Z,4.18
2023-04-13T15:54:46.893Z,3.60
2023-04-13T15:57:15.123Z,4.45
2023-04-13T15:59:42.759Z,4.10
2023-04-13T16:02:10.756Z,3.92
2023-04-13T16:04:38.470Z,5.07
2023-04-13T16:07:13.519Z,4.03
2023-04-13T16:09:47.190Z,3.60
2023-04-13T16:12:14.992Z,4.30
2023-04-13T16:14:42.600Z,3.47
2023-04-13T16:17:10.902Z,3.92
2023-04-13T16:19:39.422Z,5.68
2023-04-13T16:22:08.060Z,3.95
2023-04-13T16:24:35.774Z,4.10
2023-04-13T16:27:04.088Z,3.58
2023-04-13T16:29:31.782Z,4.15
2023-04-13T16:31:59.386Z,4.80
2023-04-13T16:34:28.427Z,6.45
2023-04-13T16:36:57.553Z,6.57
2023-04-13T16:39:25.149Z,5.57
2023-04-13T16:41:52.608Z,5.70
2023-04-13T16:44:20.147Z,5.03
2023-04-13T16:46:47.769Z,5.47
2023-04-13T16:49:15.769Z,6.97
2023-04-13T16:51:43.169Z,5.70
2023-04-13T16:54:14.529Z,5.05
2023-04-13T16:56:42.001Z,5.55
2023-04-13T16:59:09.554Z,5.00
2023-04-13T17:01:39.462Z,3.70
2023-04-13T17:04:07.823Z,3.78
2023-04-13T17:06:36.296Z,4.28
2023-04-13T17:09:03.908Z,4.13
2023-04-13T17:11:31.448Z,6.22
2023-04-13T17:13:58.987Z,4.13
2023-04-13T17:16:29.942Z,5.10
2023-04-13T17:19:00.000Z,4.25
2023-04-13T17:21:28.043Z,4.50
2023-04-13T17:23:55.582Z,4.88
2023-04-13T17:26:23.038Z,5.30
2023-04-13T17:28:50.452Z,4.45
2023-04-13T17:31:18.198Z,4.82
2023-04-13T17:33:46.844Z,5.07
2023-04-13T17:36:15.958Z,4.45
2023-04-13T17:38:43.694Z,4.28
2023-04-13T17:41:12.386Z,4.32
2023-04-13T17:43:40.939Z,4.78
2023-04-13T17:46:09.127Z,4.72
2023-04-13T17:48:36.655Z,3.38
2023-04-13T17:51:04.137Z,5.63
2023-04-13T17:53:31.851Z,6.25
2023-04-13T17:55:59.679Z,5.05
2023-04-13T17:58:27.286Z,3.53
2023-04-13T18:00:54.951Z,3.75
2023-04-13T18:03:22.570Z,2.97
2023-04-13T18:05:50.410Z,3.60
2023-04-13T18:08:18.035Z,3.65
2023-04-13T18:10:45.551Z,3.78
2023-04-13T18:13:13.200Z,3.78
2023-04-13T18:15:40.891Z,3.47
2023-04-13T18:18:08.503Z,3.50
2023-04-13T18:20:36.230Z,4.15
2023-04-13T18:23:03.765Z,3.10
2023-04-13T18:25:31.702Z,3.90
2023-04-13T18:27:59.180Z,3.35
2023-04-13T18:30:27.801Z,3.50
2023-04-13T18:32:55.408Z,2.58
2023-04-13T18:35:22.877Z,3.55
2023-04-13T18:37:50.565Z,3.28
2023-04-13T18:40:18.171Z,2.90
2023-04-13T18:42:48.141Z,2.70
2023-04-13T18:45:15.877Z,3.65
2023-04-13T18:47:43.563Z,2.38
2023-04-13T18:50:11.889Z,2.65
2023-04-13T18:52:39.556Z,3.58
2023-04-13T18:55:07.226Z,3.05
2023-04-13T18:57:34.834Z,2.60
2023-04-13T19:00:02.469Z,3.15
2023-04-13T19:02:30.118Z,3.65
2023-04-13T19:04:57.753Z,3.88
2023-04-13T19:07:25.416Z,3.90
2023-04-13T19:09:52.942Z,3.53
2023-04-13T19:12:20.513Z,3.17
2023-04-13T19:14:48.544Z,5.13
2023-04-13T19:17:17.065Z,3.50
2023-04-13T19:19:44.546Z,3.75
2023-04-13T19:22:12.220Z,2.83
2023-04-13T19:24:39.678Z,3.47
2023-04-13T19:27:07.152Z,3.72
2023-04-13T19:29:35.601Z,3.72
2023-04-13T19:32:03.361Z,2.92
2023-04-13T19:34:30.837Z,4.95
2023-04-13T19:36:58.729Z,2.92
2023-04-13T19:39:26.361Z,4.25
2023-04-13T19:41:54.252Z,3.47
2023-04-13T19:44:22.177Z,3.55
2023-04-13T19:46:49.632Z,3.08
2023-04-13T19:49:17.197Z,3.03
2023-04-13T19:51:44.873Z,3.33
2023-04-13T19:54:12.349Z,3.95
2023-04-13T19:56:39.998Z,3.78
2023-04-13T19:59:08.271Z,3.20
2023-04-13T20:01:35.948Z,3.58
2023-04-13T20:04:05.020Z,4.15
2023-04-13T20:06:35.809Z,3.30
2023-04-13T20:09:13.118Z,3.95
2023-04-13T20:11:42.985Z,3.63
2023-04-13T20:14:13.737Z,3.55
2023-04-13T20:16:41.406Z,3.75
2023-04-13T20:19:14.091Z,3.00
2023-04-13T20:21:42.621Z,5.28
2023-04-13T20:24:10.183Z,4.07
2023-04-13T20:26:37.607Z,3.55
2023-04-13T20:29:05.758Z,4.07
2023-04-13T20:31:33.954Z,3.80
2023-04-13T20:34:03.672Z,4.40
2023-04-13T20:36:31.772Z,4.03
2023-04-13T20:39:00.222Z,3.97
2023-04-13T20:41:30.407Z,4.57
2023-04-13T20:43:59.538Z,3.75
2023-04-13T20:46:35.257Z,4.85
2023-04-13T20:49:04.952Z,4.60
2023-04-13T20:51:33.947Z,4.78
2023-04-13T20:54:03.292Z,4.25
2023-04-13T20:56:31.074Z,4.22
2023-04-13T20:58:58.896Z,4.65
2023-04-13T21:01:26.587Z,4.30
2023-04-13T21:03:54.052Z,4.05
2023-04-13T21:06:23.233Z,3.20
2023-04-13T21:08:50.745Z,4.45
2023-04-13T21:11:18.414Z,4.35
2023-04-13T21:13:45.971Z,4.95
2023-04-13T21:16:14.422Z,4.68
2023-04-13T21:18:42.642Z,4.13
2023-04-13T21:21:10.123Z,5.05
2023-04-13T21:23:38.083Z,4.65
2023-04-13T21:26:06.360Z,4.47
2023-04-13T21:28:33.823Z,3.92
2023-04-13T21:31:01.480Z,4.10
2023-04-13T21:33:29.393Z,5.10
2023-04-13T21:35:56.873Z,3.50
2023-04-13T21:38:24.590Z,4.30
2023-04-13T21:40:52.313Z,4.28
2023-04-13T21:43:19.788Z,4.00
2023-04-13T21:45:47.461Z,4.38
2023-04-13T21:48:15.551Z,4.97
2023-04-13T21:50:43.556Z,4.43
2023-04-13T21:53:11.101Z,4.05
2023-04-13T21:55:38.568Z,4.28
2023-04-13T21:58:06.188Z,4.57
2023-04-13T22:00:33.736Z,5.95
2023-04-13T22:03:01.659Z,5.00
2023-04-13T22:05:29.319Z,4.93
2023-04-13T22:07:57.327Z,4.68
2023-04-13T22:10:24.916Z,4.53
2023-04-13T22:12:55.276Z,5.28
2023-04-13T22:15:25.786Z,9.25
2023-04-13T22:17:53.548Z,4.78
2023-04-13T22:20:21.191Z,3.85
2023-04-13T22:22:48.770Z,5.20
2023-04-13T22:25:16.400Z,6.47
2023-04-13T22:27:44.602Z,5.38
2023-04-13T22:30:13.061Z,5.18
2023-04-13T22:32:42.495Z,6.85
2023-04-13T22:35:10.288Z,7.30
2023-04-13T22:37:37.873Z,4.25
2023-04-13T22:40:05.635Z,4.10
2023-04-13T22:42:33.127Z,4.90
2023-04-13T22:45:00.672Z,5.47
2023-04-13T22:47:28.308Z,4.00
2023-04-13T22:49:56.023Z,4.07
2023-04-13T22:52:23.554Z,4.55
2023-04-13T22:54:51.032Z,5.00
2023-04-13T22:57:19.137Z,3.88
2023-04-13T22:59:47.084Z,3.55
2023-04-13T23:02:14.697Z,4.43
2023-04-13T23:04:45.638Z,3.95
2023-04-13T23:07:13.438Z,4.70
2023-04-13T23:09:41.252Z,3.65
2023-04-13T23:12:09.013Z,3.97
2023-04-13T23:14:36.782Z,4.03
2023-04-13T23:17:04.727Z,3.83
2023-04-13T23:19:32.223Z,4.05
2023-04-13T23:21:59.956Z,4.20
2023-04-13T23:24:30.278Z,4.15
2023-04-13T23:26:59.703Z,3.20
2023-04-13T23:29:27.395Z,3.92
2023-04-13T23:31:58.326Z,3.97
2023-04-13T23:34:26.625Z,4.72
2023-04-13T23:36:54.092Z,4.57
2023-04-13T23:39:22.803Z,4.93
2023-04-13T23:41:50.538Z,5.03
2023-04-13T23:44:17.986Z,4.63
2023-04-13T23:46:45.469Z,5.03
2023-04-13T23:49:13.400Z,4.10
2023-04-13T23:51:41.248Z,4.05
2023-04-13T23:54:08.752Z,3.88
2023-04-13T23:56:37.769Z,4.20
2023-04-13T23:59:05.280Z,5.13
